createdAt,value
2018-12-13T00:01:01.586Z,0.20
2018-12-13T00:03:30.020Z,0.30
2018-12-13T00:05:58.589Z,0.30
2018-12-13T00:08:27.018Z,0.40
2018-12-13T00:10:55.496Z,0.50
2018-12-13T00:13:24.017Z,0.60
2018-12-13T00:15:53.325Z,0.60
2018-12-13T00:18:21.754Z,0.60
2018-12-13T00:20:50.227Z,0.60
2018-12-13T00:23:18.650Z,0.60
2018-12-13T00:25:47.102Z,0.60
2018-12-13T00:28:15.535Z,0.60
2018-12-13T00:30:44.023Z,0.60
2018-12-13T00:33:12.446Z,0.70
2018-12-13T00:35:40.943Z,0.70
2018-12-13T00:38:09.374Z,0.70
2018-12-13T00:40:37.867Z,0.70
2018-12-13T00:43:06.313Z,0.70
2018-12-13T00:45:34.759Z,0.80
2018-12-13T00:48:03.186Z,0.80
2018-12-13T00:50:31.672Z,0.80
2018-12-13T00:53:00.106Z,0.90
2018-12-13T00:55:28.549Z,0.90
2018-12-13T00:57:56.982Z,0.90
2018-12-13T01:00:25.429Z,1.00
2018-12-13T01:02:53.878Z,0.90
2018-12-13T01:05:22.301Z,0.90
2018-12-13T01:07:50.806Z,0.90
2018-12-13T01:10:19.256Z,0.90
2018-12-13T01:12:47.703Z,0.90
2018-12-13T01:15:16.130Z,0.90
2018-12-13T01:17:44.594Z,0.90
2018-12-13T01:20:13.142Z,0.90
2018-12-13T01:22:41.585Z,0.90
2018-12-13T01:25:10.031Z,0.90
2018-12-13T01:27:38.488Z,0.90
2018-12-13T01:30:07.061Z,0.80
2018-12-13T01:32:35.506Z,0.90
2018-12-13T01:35:04.233Z,0.90
2018-12-13T01:37:32.681Z,0.80
2018-12-13T01:40:01.306Z,0.80
2018-12-13T01:42:29.763Z,0.80
2018-12-13T01:44:58.206Z,0.80
2018-12-13T01:47:26.658Z,0.80
2018-12-13T01:49:55.356Z,0.80
2018-12-13T01:52:23.797Z,0.70
2018-12-13T01:54:52.238Z,0.70
2018-12-13T01:57:20.686Z,0.70
2018-12-13T01:59:49.126Z,0.70
2018-12-13T02:02:17.579Z,0.70
2018-12-13T02:04:46.013Z,0.60
2018-12-13T02:07:14.470Z,0.60
2018-12-13T02:09:42.904Z,0.60
2018-12-13T02:12:11.358Z,0.60
2018-12-13T02:14:39.822Z,0.60
2018-12-13T02:17:08.262Z,0.60
2018-12-13T02:19:36.834Z,0.60
2018-12-13T02:22:05.282Z,0.60
2018-12-13T02:24:33.744Z,0.60
2018-12-13T02:27:02.176Z,0.60
2018-12-13T02:29:30.758Z,0.60
2018-12-13T02:31:59.193Z,0.60
2018-12-13T02:34:27.661Z,0.60
2018-12-13T02:36:56.090Z,0.60
2018-12-13T02:39:24.573Z,0.60
2018-12-13T02:41:53.080Z,0.60
2018-12-13T02:44:21.551Z,0.50
2018-12-13T02:46:49.980Z,0.50
2018-12-13T02:49:18.444Z,0.40
2018-12-13T02:51:46.902Z,0.40
2018-12-13T02:54:15.375Z,0.30
2018-12-13T02:56:43.797Z,0.30
2018-12-13T02:59:12.289Z,0.30
2018-12-13T03:01:40.778Z,0.30
2018-12-13T03:04:09.249Z,0.20
2018-12-13T03:06:37.679Z,0.20
2018-12-13T03:09:07.488Z,0.20
2018-12-13T03:11:35.929Z,0.20
2018-12-13T03:14:04.430Z,0.20
2018-12-13T03:16:32.878Z,0.20
2018-12-13T03:19:01.362Z,0.20
2018-12-13T03:21:29.807Z,0.10
2018-12-13T03:23:58.238Z,0.00
2018-12-13T03:26:26.758Z,0.00
2018-12-13T03:28:55.244Z,0.10
2018-12-13T03:31:23.695Z,0.10
2018-12-13T03:33:52.135Z,0.00
2018-12-13T03:36:20.605Z,-0.10
2018-12-13T03:38:49.071Z,-0.10
2018-12-13T03:41:17.522Z,-0.10
2018-12-13T03:43:45.958Z,-0.10
2018-12-13T03:46:14.402Z,-0.10
2018-12-13T03:48:42.831Z,-0.20
2018-12-13T03:51:11.304Z,-0.20
2018-12-13T03:53:39.755Z,-0.30
2018-12-13T03:56:08.202Z,-0.30
2018-12-13T03:58:36.635Z,-0.40
2018-12-13T04:01:05.081Z,-0.40
2018-12-13T04:03:33.510Z,-0.40
2018-12-13T04:06:02.022Z,-0.40
2018-12-13T04:08:30.503Z,-0.50
2018-12-13T04:10:58.953Z,-0.40
2018-12-13T04:13:27.382Z,-0.50
2018-12-13T04:15:55.903Z,-0.60
2018-12-13T04:18:24.380Z,-0.60
2018-12-13T04:20:52.830Z,-0.60
2018-12-13T04:23:21.266Z,-0.70
2018-12-13T04:25:49.715Z,-0.70
2018-12-13T04:28:18.151Z,-0.70
2018-12-13T04:30:46.618Z,-0.80
2018-12-13T04:33:15.050Z,-0.80
2018-12-13T04:35:43.518Z,-0.80
2018-12-13T04:38:11.960Z,-0.80
2018-12-13T04:40:40.466Z,-0.90
2018-12-13T04:43:08.894Z,-0.90
2018-12-13T04:45:37.457Z,-0.90
2018-12-13T04:48:05.899Z,-0.90
2018-12-13T04:50:34.348Z,-0.90
2018-12-13T04:53:02.782Z,-1.00
2018-12-13T04:55:31.202Z,-0.90
2018-12-13T04:57:59.694Z,-0.90
2018-12-13T05:00:28.114Z,-1.00
2018-12-13T05:02:56.541Z,-1.00
2018-12-13T05:05:25.079Z,-0.90
2018-12-13T05:07:53.519Z,-1.00
2018-12-13T05:10:33.373Z,-1.10
2018-12-13T05:13:01.814Z,-1.20
2018-12-13T05:15:30.230Z,-1.30
2018-12-13T05:17:58.671Z,-1.30
2018-12-13T05:20:27.090Z,-1.30
2018-12-13T05:22:55.526Z,-1.30
2018-12-13T05:25:23.941Z,-1.30
2018-12-13T05:27:52.494Z,-1.30
2018-12-13T05:30:20.926Z,-1.30
2018-12-13T05:32:49.371Z,-1.30
2018-12-13T05:35:17.787Z,-1.30
2018-12-13T05:37:48.370Z,-1.40
2018-12-13T05:40:16.664Z,-1.30
2018-12-13T05:42:45.139Z,-1.20
2018-12-13T05:45:13.677Z,-1.30
2018-12-13T05:47:42.118Z,-1.30
2018-12-13T05:50:10.572Z,-1.30
2018-12-13T05:52:39.026Z,-1.30
2018-12-13T05:55:08.584Z,-1.30
2018-12-13T05:57:37.215Z,-1.40
2018-12-13T06:00:06.430Z,-1.40
2018-12-13T06:02:34.862Z,-1.30
2018-12-13T06:05:03.530Z,-1.40
2018-12-13T06:07:32.015Z,-1.40
2018-12-13T06:10:00.471Z,-1.30
2018-12-13T06:12:28.908Z,-1.40
2018-12-13T06:14:57.478Z,-1.40
2018-12-13T06:17:25.903Z,-1.40
2018-12-13T06:19:54.353Z,-1.40
2018-12-13T06:22:22.785Z,-1.40
2018-12-13T06:24:51.376Z,-1.40
2018-12-13T06:27:19.902Z,-1.40
2018-12-13T06:29:48.965Z,-1.50
2018-12-13T06:32:17.579Z,-1.50
2018-12-13T06:34:46.055Z,-1.60
2018-12-13T06:37:14.511Z,-1.60
2018-12-13T06:39:42.976Z,-1.50
2018-12-13T06:42:11.534Z,-1.50
2018-12-13T06:44:40.015Z,-1.40
2018-12-13T06:47:08.601Z,-1.40
2018-12-13T06:49:37.049Z,-1.40
2018-12-13T06:52:05.500Z,-1.40
2018-12-13T06:54:33.978Z,-1.40
2018-12-13T06:57:02.427Z,-1.40
2018-12-13T06:59:30.916Z,-1.40
2018-12-13T07:01:59.358Z,-1.40
2018-12-13T07:04:27.805Z,-1.40
2018-12-13T07:06:56.254Z,-1.40
2018-12-13T07:09:24.742Z,-1.40
2018-12-13T07:11:53.193Z,-1.30
2018-12-13T07:14:21.637Z,-1.30
2018-12-13T07:16:50.099Z,-1.20
2018-12-13T07:19:18.530Z,-1.20
2018-12-13T07:21:46.986Z,-1.20
2018-12-13T07:24:15.414Z,-1.20
2018-12-13T07:26:43.902Z,-1.10
2018-12-13T07:29:12.330Z,-1.20
2018-12-13T07:31:40.782Z,-1.10
2018-12-13T07:34:09.210Z,-1.10
2018-12-13T07:36:37.663Z,-1.10
2018-12-13T07:39:09.062Z,-1.00
2018-12-13T07:41:37.542Z,-1.10
2018-12-13T07:44:05.974Z,-1.10
2018-12-13T07:46:34.421Z,-1.00
2018-12-13T07:49:02.858Z,-0.90
2018-12-13T07:51:31.330Z,-0.90
2018-12-13T07:53:59.783Z,-0.80
2018-12-13T07:56:29.297Z,-0.10
2018-12-13T07:58:57.901Z,0.70
2018-12-13T08:01:26.349Z,1.50
2018-12-13T08:03:54.778Z,2.20
2018-12-13T08:06:23.237Z,2.60
2018-12-13T08:08:51.670Z,2.90
2018-12-13T08:11:20.118Z,3.00
2018-12-13T08:13:48.566Z,3.20
2018-12-13T08:16:16.998Z,3.30
2018-12-13T08:18:45.455Z,3.30
2018-12-13T08:21:13.894Z,3.40
2018-12-13T08:23:42.352Z,3.80
2018-12-13T08:26:10.784Z,4.00
2018-12-13T08:28:39.229Z,4.30
2018-12-13T08:31:07.658Z,4.60
2018-12-13T08:33:36.106Z,4.80
2018-12-13T08:36:04.540Z,5.00
2018-12-13T08:38:32.982Z,5.00
2018-12-13T08:41:01.403Z,5.00
2018-12-13T08:43:29.852Z,5.00
2018-12-13T08:45:58.457Z,5.20
2018-12-13T08:48:26.898Z,5.30
2018-12-13T08:50:55.371Z,5.60
2018-12-13T08:53:23.851Z,5.80
2018-12-13T08:55:52.296Z,5.70
2018-12-13T08:58:20.744Z,5.50
2018-12-13T09:00:49.178Z,5.20
2018-12-13T09:03:17.618Z,4.20
2018-12-13T09:05:46.033Z,2.90
2018-12-13T09:08:14.465Z,2.10
2018-12-13T09:10:42.881Z,1.90
2018-12-13T09:13:11.323Z,2.80
2018-12-13T09:15:39.763Z,3.70
2018-12-13T09:18:08.195Z,4.30
2018-12-13T09:20:36.630Z,4.90
2018-12-13T09:23:05.075Z,5.20
2018-12-13T09:25:33.482Z,5.50
2018-12-13T09:28:01.902Z,5.90
2018-12-13T09:30:30.335Z,6.20
2018-12-13T09:32:58.752Z,5.80
2018-12-13T09:35:27.183Z,5.50
2018-12-13T09:37:55.647Z,5.70
2018-12-13T09:40:24.266Z,6.00
2018-12-13T09:42:52.686Z,6.10
2018-12-13T09:45:21.158Z,6.20
2018-12-13T09:47:49.573Z,6.60
2018-12-13T09:50:18.037Z,6.60
2018-12-13T09:52:46.477Z,5.50
2018-12-13T09:55:14.954Z,4.30
2018-12-13T09:57:43.386Z,3.50
2018-12-13T10:00:11.950Z,2.80
2018-12-13T10:02:40.378Z,2.60
2018-12-13T10:05:08.902Z,2.20
2018-12-13T10:07:37.324Z,2.00
2018-12-13T10:10:05.958Z,1.90
2018-12-13T10:12:34.390Z,1.90
2018-12-13T10:15:02.845Z,1.90
2018-12-13T10:17:31.283Z,2.20
2018-12-13T10:19:59.746Z,2.40
2018-12-13T10:22:28.751Z,2.80
2018-12-13T10:24:57.390Z,3.10
2018-12-13T10:27:25.843Z,3.10
2018-12-13T10:29:54.290Z,2.90
2018-12-13T10:32:22.758Z,2.70
2018-12-13T10:34:51.233Z,2.70
2018-12-13T10:37:19.683Z,2.80
2018-12-13T10:39:48.137Z,3.30
2018-12-13T10:42:16.590Z,4.00
2018-12-13T10:44:45.031Z,4.50
2018-12-13T10:47:13.482Z,4.60
2018-12-13T10:49:41.943Z,4.70
2018-12-13T10:52:10.414Z,4.90
2018-12-13T10:54:38.864Z,4.90
2018-12-13T10:57:07.355Z,4.80
2018-12-13T10:59:35.805Z,4.10
2018-12-13T11:02:08.600Z,3.60
2018-12-13T11:04:37.063Z,3.00
2018-12-13T11:07:05.517Z,2.50
2018-12-13T11:09:33.971Z,2.00
2018-12-13T11:12:02.426Z,1.70
2018-12-13T11:14:30.878Z,1.60
2018-12-13T11:16:59.343Z,1.50
2018-12-13T11:19:27.797Z,1.40
2018-12-13T11:21:56.274Z,1.50
2018-12-13T11:24:24.713Z,1.60
2018-12-13T11:26:54.506Z,1.60
2018-12-13T11:30:26.335Z,1.50
2018-12-13T11:32:54.789Z,1.50
2018-12-13T11:35:23.233Z,1.30
2018-12-13T11:37:51.685Z,1.20
2018-12-13T11:40:20.122Z,1.30
2018-12-13T11:42:48.575Z,1.30
2018-12-13T11:45:17.070Z,1.50
2018-12-13T11:47:45.514Z,1.90
2018-12-13T11:50:13.970Z,2.30
2018-12-13T11:52:42.421Z,2.50
2018-12-13T11:55:28.394Z,2.40
2018-12-13T11:57:57.074Z,2.30
2018-12-13T12:00:25.505Z,2.10
2018-12-13T12:02:53.960Z,2.00
2018-12-13T12:05:22.386Z,2.00
2018-12-13T12:07:50.839Z,2.00
2018-12-13T12:10:19.278Z,2.00
2018-12-13T12:12:47.730Z,1.80
2018-12-13T12:15:16.169Z,1.80
2018-12-13T12:17:44.630Z,1.80
2018-12-13T12:20:13.195Z,1.80
2018-12-13T12:22:41.707Z,1.90
2018-12-13T12:25:10.154Z,1.90
2018-12-13T12:27:38.599Z,1.80
2018-12-13T12:30:07.261Z,1.70
2018-12-13T12:32:35.721Z,1.60
2018-12-13T12:35:04.700Z,1.60
2018-12-13T12:37:33.169Z,1.50
2018-12-13T12:40:01.610Z,1.40
2018-12-13T12:42:30.037Z,1.30
2018-12-13T12:44:58.490Z,1.30
2018-12-13T12:47:26.931Z,1.30
2018-12-13T12:49:55.410Z,1.20
2018-12-13T12:52:23.863Z,1.30
2018-12-13T12:54:52.342Z,1.20
2018-12-13T12:57:20.787Z,1.20
2018-12-13T12:59:49.233Z,1.10
2018-12-13T13:02:17.660Z,1.10
2018-12-13T13:04:46.103Z,1.10
2018-12-13T13:07:14.534Z,1.10
2018-12-13T13:09:42.978Z,1.00
2018-12-13T13:12:11.437Z,1.00
2018-12-13T13:14:39.869Z,1.00
2018-12-13T13:17:08.299Z,1.00
2018-12-13T13:19:36.739Z,1.00
2018-12-13T13:22:05.174Z,1.00
2018-12-13T13:24:33.606Z,1.00
2018-12-13T13:27:02.069Z,1.10
2018-12-13T13:29:30.516Z,1.10
2018-12-13T13:31:58.939Z,1.10
2018-12-13T13:34:27.369Z,1.10
2018-12-13T13:36:55.798Z,1.00
2018-12-13T13:39:24.229Z,1.00
2018-12-13T13:41:52.702Z,1.00
2018-12-13T13:44:21.707Z,1.00
2018-12-13T13:46:50.127Z,1.00
2018-12-13T13:49:18.546Z,1.00
2018-12-13T13:51:47.060Z,1.00
2018-12-13T13:54:15.474Z,1.00
2018-12-13T13:56:43.926Z,1.00
2018-12-13T13:59:12.467Z,1.00
2018-12-13T14:01:40.901Z,1.00
2018-12-13T14:04:09.318Z,1.00
2018-12-13T14:06:37.757Z,0.90
2018-12-13T14:09:07.798Z,0.90
2018-12-13T14:11:36.245Z,0.90
2018-12-13T14:14:04.835Z,0.90
2018-12-13T14:16:33.279Z,0.90
2018-12-13T14:19:01.702Z,0.90
2018-12-13T14:21:30.142Z,0.90
2018-12-13T14:23:58.613Z,0.80
2018-12-13T14:26:27.056Z,0.80
2018-12-13T14:28:55.471Z,0.80
2018-12-13T14:31:23.897Z,0.80
2018-12-13T14:33:52.334Z,0.80
2018-12-13T14:36:20.773Z,0.80
2018-12-13T14:38:49.189Z,0.80
2018-12-13T14:41:17.628Z,0.70
2018-12-13T14:43:46.046Z,0.70
2018-12-13T14:46:14.482Z,0.70
2018-12-13T14:48:42.898Z,0.60
2018-12-13T14:51:11.367Z,0.60
2018-12-13T14:53:39.871Z,0.70
2018-12-13T14:56:08.381Z,0.70
2018-12-13T14:58:36.814Z,0.70
2018-12-13T15:01:05.300Z,0.60
2018-12-13T15:03:33.743Z,0.70
2018-12-13T15:06:02.289Z,0.60
2018-12-13T15:08:30.739Z,0.60
2018-12-13T15:10:59.189Z,0.60
2018-12-13T15:13:27.646Z,0.50
2018-12-13T15:15:56.078Z,0.60
2018-12-13T15:18:24.530Z,0.60
2018-12-13T15:20:52.970Z,0.60
2018-12-13T15:23:21.419Z,0.50
2018-12-13T15:25:49.847Z,0.50
2018-12-13T15:28:18.338Z,0.50
2018-12-13T15:30:46.772Z,0.40
2018-12-13T15:33:15.221Z,0.40
2018-12-13T15:35:43.650Z,0.40
2018-12-13T15:38:12.221Z,0.40
2018-12-13T15:40:40.675Z,0.30
2018-12-13T15:43:09.122Z,0.30
2018-12-13T15:45:37.674Z,0.30
2018-12-13T15:48:06.119Z,0.30
2018-12-13T15:50:34.605Z,0.20
2018-12-13T15:53:03.063Z,0.20
2018-12-13T15:55:31.502Z,0.20
2018-12-13T15:57:59.956Z,0.20
2018-12-13T16:00:28.398Z,0.20
2018-12-13T16:02:56.862Z,0.20
2018-12-13T16:05:25.348Z,0.20
2018-12-13T16:07:53.794Z,0.20
2018-12-13T16:10:22.217Z,0.20
2018-12-13T16:12:50.663Z,0.20
2018-12-13T16:15:19.093Z,0.30
2018-12-13T16:17:47.518Z,0.30
2018-12-13T16:20:15.978Z,0.30
2018-12-13T16:22:44.409Z,0.30
2018-12-13T16:25:12.872Z,0.30
2018-12-13T16:27:41.366Z,0.30
2018-12-13T16:30:09.961Z,0.20
2018-12-13T16:32:38.399Z,0.20
2018-12-13T16:35:06.972Z,0.30
2018-12-13T16:37:35.399Z,0.20
2018-12-13T16:40:10.136Z,0.30
2018-12-13T16:42:34.621Z,0.20
2018-12-13T16:45:03.256Z,0.20
2018-12-13T16:47:31.691Z,0.20
2018-12-13T16:50:00.157Z,0.20
2018-12-13T16:52:28.607Z,0.20
2018-12-13T16:54:57.050Z,0.30
2018-12-13T16:57:25.477Z,0.20
2018-12-13T16:59:53.929Z,0.20
2018-12-13T17:02:22.427Z,0.30
2018-12-13T17:04:50.894Z,0.20
2018-12-13T17:07:19.319Z,0.30
2018-12-13T17:09:47.762Z,0.30
2018-12-13T17:12:16.210Z,0.20
2018-12-13T17:14:44.679Z,0.20
2018-12-13T17:17:13.130Z,0.30
2018-12-13T17:19:41.569Z,0.30
2018-12-13T17:22:10.015Z,0.20
2018-12-13T17:24:38.450Z,0.20
2018-12-13T17:27:06.926Z,0.20
2018-12-13T17:29:35.354Z,0.20
2018-12-13T17:32:03.857Z,0.10
2018-12-13T17:34:32.290Z,0.10
2018-12-13T17:37:00.755Z,0.20
2018-12-13T17:39:29.516Z,0.10
2018-12-13T17:41:57.970Z,0.10
2018-12-13T17:44:26.393Z,0.10
2018-12-13T17:46:54.894Z,0.20
2018-12-13T17:49:23.871Z,0.20
2018-12-13T17:51:52.342Z,0.30
2018-12-13T17:54:20.773Z,0.30
2018-12-13T17:56:49.555Z,0.30
2018-12-13T17:59:19.733Z,0.20
2018-12-13T18:01:48.473Z,0.20
2018-12-13T18:04:16.926Z,0.20
2018-12-13T18:06:45.509Z,0.20
2018-12-13T18:09:14.132Z,0.20
2018-12-13T18:11:42.634Z,0.20
2018-12-13T18:14:11.298Z,0.10
2018-12-13T18:16:43.379Z,0.20
2018-12-13T18:19:10.235Z,0.20
2018-12-13T18:21:38.927Z,0.20
2018-12-13T18:24:07.341Z,0.20
2018-12-13T18:26:35.774Z,0.20
2018-12-13T18:29:04.528Z,0.20
2018-12-13T18:31:32.962Z,0.20
2018-12-13T18:34:01.395Z,0.20
2018-12-13T18:36:29.834Z,0.20
2018-12-13T18:38:58.252Z,0.20
2018-12-13T18:41:26.666Z,0.20
2018-12-13T18:43:55.106Z,0.10
2018-12-13T18:46:23.521Z,0.10
2018-12-13T18:48:51.963Z,0.10
2018-12-13T18:51:20.398Z,0.10
2018-12-13T18:53:48.831Z,0.10
2018-12-13T18:56:17.250Z,0.10
2018-12-13T18:58:45.682Z,0.20
2018-12-13T19:01:14.151Z,0.10
2018-12-13T19:03:42.601Z,0.10
2018-12-13T19:06:11.019Z,0.10
2018-12-13T19:08:39.467Z,0.10
2018-12-13T19:11:07.910Z,0.10
2018-12-13T19:13:36.345Z,0.10
2018-12-13T19:16:04.765Z,0.10
2018-12-13T19:18:33.191Z,0.10
2018-12-13T19:21:01.612Z,0.00
2018-12-13T19:23:30.054Z,0.00
2018-12-13T19:25:58.534Z,0.00
2018-12-13T19:28:26.970Z,0.00
2018-12-13T19:30:55.389Z,0.10
2018-12-13T19:33:23.822Z,0.10
2018-12-13T19:35:52.234Z,0.10
2018-12-13T19:38:20.669Z,0.10
2018-12-13T19:40:49.095Z,0.10
2018-12-13T19:43:17.540Z,0.10
2018-12-13T19:45:45.974Z,0.10
2018-12-13T19:48:14.390Z,0.10
2018-12-13T19:50:42.846Z,0.00
2018-12-13T19:53:11.578Z,0.00
2018-12-13T19:55:40.012Z,0.00
2018-12-13T19:58:08.421Z,0.00
2018-12-13T20:00:36.870Z,0.00
2018-12-13T20:03:05.402Z,0.00
2018-12-13T20:05:33.901Z,0.00
2018-12-13T20:08:02.365Z,0.00
2018-12-13T20:10:30.802Z,0.00
2018-12-13T20:12:59.214Z,0.00
2018-12-13T20:15:27.646Z,0.00
2018-12-13T20:17:56.178Z,0.10
2018-12-13T20:20:24.612Z,0.00
2018-12-13T20:22:53.028Z,0.00
2018-12-13T20:25:21.462Z,0.00
2018-12-13T20:27:49.879Z,0.00
2018-12-13T20:30:18.443Z,-0.10
2018-12-13T20:32:46.858Z,-0.10
2018-12-13T20:35:15.518Z,-0.10
2018-12-13T20:37:43.938Z,-0.10
2018-12-13T20:40:12.382Z,-0.20
2018-12-13T20:42:40.818Z,-0.20
2018-12-13T20:45:09.525Z,-0.20
2018-12-13T20:47:37.946Z,-0.20
2018-12-13T20:50:07.164Z,-0.20
2018-12-13T20:52:35.594Z,-0.10
2018-12-13T20:55:04.326Z,-0.10
2018-12-13T20:57:32.759Z,0.00
2018-12-13T21:00:01.264Z,-0.10
2018-12-13T21:02:29.698Z,-0.10
2018-12-13T21:04:58.515Z,-0.10
2018-12-13T21:07:34.390Z,-0.10
2018-12-13T21:10:04.903Z,-0.10
2018-12-13T21:12:33.391Z,-0.20
2018-12-13T21:15:01.838Z,-0.10
2018-12-13T21:17:30.306Z,-0.10
2018-12-13T21:19:58.735Z,0.00
2018-12-13T21:22:27.212Z,-0.10
2018-12-13T21:24:55.650Z,-0.10
2018-12-13T21:27:24.126Z,-0.10
2018-12-13T21:29:52.570Z,-0.10
2018-12-13T21:32:21.038Z,-0.10
2018-12-13T21:34:49.503Z,-0.20
2018-12-13T21:37:17.962Z,-0.10
2018-12-13T21:39:46.393Z,-0.10
2018-12-13T21:42:14.866Z,-0.10
2018-12-13T21:44:43.290Z,-0.20
2018-12-13T21:47:11.750Z,-0.20
2018-12-13T21:49:40.227Z,-0.20
2018-12-13T21:52:08.722Z,-0.10
2018-12-13T21:54:37.190Z,-0.10
2018-12-13T21:57:05.975Z,-0.20
2018-12-13T21:59:34.410Z,-0.20
2018-12-13T22:02:02.861Z,-0.20
2018-12-13T22:04:31.286Z,-0.20
2018-12-13T22:06:59.749Z,-0.10
2018-12-13T22:09:28.174Z,-0.10
2018-12-13T22:11:56.603Z,-0.20
2018-12-13T22:14:25.056Z,-0.20
2018-12-13T22:16:53.487Z,-0.20
2018-12-13T22:19:22.075Z,-0.20
2018-12-13T22:21:50.493Z,-0.20
2018-12-13T22:24:18.935Z,-0.20
2018-12-13T22:26:47.362Z,-0.20
2018-12-13T22:29:15.806Z,-0.30
2018-12-13T22:31:44.650Z,-0.30
2018-12-13T22:34:13.631Z,-0.20
2018-12-13T22:36:42.276Z,-0.20
2018-12-13T22:39:10.725Z,-0.20
2018-12-13T22:41:39.151Z,-0.20
2018-12-13T22:44:07.583Z,-0.20
2018-12-13T22:46:36.070Z,-0.30
2018-12-13T22:49:04.625Z,-0.20
2018-12-13T22:51:33.075Z,-0.20
2018-12-13T22:54:01.523Z,-0.20
2018-12-13T22:56:30.083Z,-0.20
2018-12-13T22:58:58.582Z,-0.30
2018-12-13T23:01:27.135Z,-0.30
2018-12-13T23:03:55.588Z,-0.30
2018-12-13T23:06:24.010Z,-0.20
2018-12-13T23:08:52.458Z,-0.30
2018-12-13T23:11:20.886Z,-0.40
2018-12-13T23:13:49.334Z,-0.30
2018-12-13T23:16:17.778Z,-0.30
2018-12-13T23:18:46.238Z,-0.30
2018-12-13T23:21:14.756Z,-0.30
2018-12-13T23:23:43.219Z,-0.20
2018-12-13T23:26:11.677Z,-0.20
2018-12-13T23:28:40.123Z,-0.20
2018-12-13T23:31:08.686Z,-0.20
2018-12-13T23:33:37.127Z,-0.20
2018-12-13T23:36:05.582Z,-0.30
2018-12-13T23:38:34.009Z,-0.30
2018-12-13T23:41:02.467Z,-0.20
2018-12-13T23:43:30.890Z,-0.30
2018-12-13T23:45:59.341Z,-0.30
2018-12-13T23:48:27.758Z,-0.30
2018-12-13T23:50:56.208Z,-0.30
2018-12-13T23:53:25.145Z,-0.30
2018-12-13T23:55:53.930Z,-0.30
2018-12-13T23:58:22.467Z,-0.30
